sensor_id;sensor_type;location;lat;lon;timestamp;temperature;humidity
19972;DHT22;10147;16.402;102.848;2023-08-24T00:00:40;26.30;99.90
19972;DHT22;10147;16.402;102.848;2023-08-24T00:03:10;26.30;99.90
19972;DHT22;10147;16.402;102.848;2023-08-24T00:05:40;26.30;99.90
19972;DHT22;10147;16.402;102.848;2023-08-24T00:08:11;26.30;99.90
19972;DHT22;10147;16.402;102.848;2023-08-24T00:10:44;26.30;99.90
19972;DHT22;10147;16.402;102.848;2023-08-24T00:13:17;26.30;99.90
19972;DHT22;10147;16.402;102.848;2023-08-24T00:15:47;26.30;99.90
19972;DHT22;10147;16.402;102.848;2023-08-24T00:18:19;26.30;99.90
19972;DHT22;10147;16.402;102.848;2023-08-24T00:20:51;26.40;99.90
19972;DHT22;10147;16.402;102.848;2023-08-24T00:23:21;26.40;99.90
19972;DHT22;10147;16.402;102.848;2023-08-24T00:25:51;26.40;99.90
19972;DHT22;10147;16.402;102.848;2023-08-24T00:28:22;26.40;99.90
19972;DHT22;10147;16.402;102.848;2023-08-24T00:30:53;26.50;99.90
19972;DHT22;10147;16.402;102.848;2023-08-24T00:33:23;26.50;99.90
19972;DHT22;10147;16.402;102.848;2023-08-24T00:35:58;26.50;99.90
19972;DHT22;10147;16.402;102.848;2023-08-24T00:38:31;26.60;99.90
19972;DHT22;10147;16.402;102.848;2023-08-24T00:41:01;26.60;99.90
19972;DHT22;10147;16.402;102.848;2023-08-24T00:43:31;26.70;99.90
19972;DHT22;10147;16.402;102.848;2023-08-24T00:46:01;26.70;99.90
19972;DHT22;10147;16.402;102.848;2023-08-24T00:48:33;26.70;99.90
19972;DHT22;10147;16.402;102.848;2023-08-24T00:51:04;26.70;99.90
19972;DHT22;10147;16.402;102.848;2023-08-24T00:53:35;26.70;99.90
19972;DHT22;10147;16.402;102.848;2023-08-24T00:56:06;26.70;99.90
19972;DHT22;10147;16.402;102.848;2023-08-24T00:58:38;26.80;99.90
19972;DHT22;10147;16.402;102.848;2023-08-24T01:01:09;26.80;99.90
19972;DHT22;10147;16.402;102.848;2023-08-24T01:03:41;26.90;99.90
19972;DHT22;10147;16.402;102.848;2023-08-24T01:06:14;26.90;99.90
19972;DHT22;10147;16.402;102.848;2023-08-24T01:08:45;27.00;99.90
19972;DHT22;10147;16.402;102.848;2023-08-24T01:11:40;27.00;99.90
19972;DHT22;10147;16.402;102.848;2023-08-24T01:14:39;27.10;99.90
19972;DHT22;10147;16.402;102.848;2023-08-24T01:17:14;27.20;99.90
19972;DHT22;10147;16.402;102.848;2023-08-24T01:19:46;27.20;99.90
19972;DHT22;10147;16.402;102.848;2023-08-24T01:22:37;27.20;99.90
19972;DHT22;10147;16.402;102.848;2023-08-24T01:25:37;27.20;99.90
19972;DHT22;10147;16.402;102.848;2023-08-24T01:28:09;27.30;99.90
19972;DHT22;10147;16.402;102.848;2023-08-24T01:30:43;27.30;99.90
19972;DHT22;10147;16.402;102.848;2023-08-24T01:33:14;27.40;99.90
19972;DHT22;10147;16.402;102.848;2023-08-24T01:35:45;27.40;99.90
19972;DHT22;10147;16.402;102.848;2023-08-24T01:38:16;27.40;99.90
19972;DHT22;10147;16.402;102.848;2023-08-24T01:43:41;27.50;99.90
19972;DHT22;10147;16.402;102.848;2023-08-24T01:46:16;27.50;99.90
19972;DHT22;10147;16.402;102.848;2023-08-24T01:48:46;27.60;99.90
19972;DHT22;10147;16.402;102.848;2023-08-24T01:51:17;27.60;99.90
19972;DHT22;10147;16.402;102.848;2023-08-24T01:53:51;27.70;99.90
19972;DHT22;10147;16.402;102.848;2023-08-24T01:56:22;27.80;99.90
19972;DHT22;10147;16.402;102.848;2023-08-24T01:58:52;27.90;99.90
19972;DHT22;10147;16.402;102.848;2023-08-24T02:01:23;27.90;99.90
19972;DHT22;10147;16.402;102.848;2023-08-24T02:03:54;28.00;99.90
19972;DHT22;10147;16.402;102.848;2023-08-24T02:06:25;28.10;99.90
19972;DHT22;10147;16.402;102.848;2023-08-24T02:08:56;28.10;99.90
19972;DHT22;10147;16.402;102.848;2023-08-24T02:11:26;28.20;99.90
19972;DHT22;10147;16.402;102.848;2023-08-24T02:13:56;28.30;99.90
19972;DHT22;10147;16.402;102.848;2023-08-24T02:16:26;28.40;99.90
19972;DHT22;10147;16.402;102.848;2023-08-24T02:18:56;28.40;99.90
19972;DHT22;10147;16.402;102.848;2023-08-24T02:21:26;28.50;99.90
19972;DHT22;10147;16.402;102.848;2023-08-24T02:23:56;28.50;99.90
19972;DHT22;10147;16.402;102.848;2023-08-24T02:26:25;28.40;99.90
19972;DHT22;10147;16.402;102.848;2023-08-24T02:28:56;28.60;99.90
19972;DHT22;10147;16.402;102.848;2023-08-24T02:31:27;28.60;99.90
19972;DHT22;10147;16.402;102.848;2023-08-24T02:33:58;28.60;99.90
19972;DHT22;10147;16.402;102.848;2023-08-24T02:36:29;28.60;99.90
19972;DHT22;10147;16.402;102.848;2023-08-24T02:39:03;28.70;99.90
19972;DHT22;10147;16.402;102.848;2023-08-24T02:41:35;28.90;99.90
19972;DHT22;10147;16.402;102.848;2023-08-24T02:44:05;29.10;99.90
19972;DHT22;10147;16.402;102.848;2023-08-24T02:46:37;29.20;99.90
19972;DHT22;10147;16.402;102.848;2023-08-24T02:49:07;29.10;99.90
19972;DHT22;10147;16.402;102.848;2023-08-24T02:51:37;29.10;99.90
19972;DHT22;10147;16.402;102.848;2023-08-24T02:54:07;29.30;99.90
19972;DHT22;10147;16.402;102.848;2023-08-24T02:56:37;29.40;99.90
19972;DHT22;10147;16.402;102.848;2023-08-24T02:59:07;29.30;99.90
19972;DHT22;10147;16.402;102.848;2023-08-24T03:01:37;29.40;99.90
19972;DHT22;10147;16.402;102.848;2023-08-24T03:04:07;29.50;99.90
19972;DHT22;10147;16.402;102.848;2023-08-24T03:06:38;29.50;99.90
19972;DHT22;10147;16.402;102.848;2023-08-24T03:09:08;29.60;99.90
19972;DHT22;10147;16.402;102.848;2023-08-24T03:11:38;29.70;99.90
19972;DHT22;10147;16.402;102.848;2023-08-24T03:14:08;29.80;99.90
19972;DHT22;10147;16.402;102.848;2023-08-24T03:16:38;29.80;99.90
19972;DHT22;10147;16.402;102.848;2023-08-24T03:19:08;29.90;99.90
19972;DHT22;10147;16.402;102.848;2023-08-24T03:21:41;29.90;99.90
19972;DHT22;10147;16.402;102.848;2023-08-24T03:24:11;29.90;99.90
19972;DHT22;10147;16.402;102.848;2023-08-24T03:26:41;29.90;99.90
19972;DHT22;10147;16.402;102.848;2023-08-24T03:29:11;29.90;99.90
19972;DHT22;10147;16.402;102.848;2023-08-24T03:31:41;30.00;99.90
19972;DHT22;10147;16.402;102.848;2023-08-24T03:34:11;30.00;99.90
19972;DHT22;10147;16.402;102.848;2023-08-24T03:36:41;30.00;99.90
19972;DHT22;10147;16.402;102.848;2023-08-24T03:39:11;30.20;99.90
19972;DHT22;10147;16.402;102.848;2023-08-24T03:41:41;30.20;99.90
19972;DHT22;10147;16.402;102.848;2023-08-24T03:44:12;30.40;99.90
19972;DHT22;10147;16.402;102.848;2023-08-24T03:46:42;30.40;99.90
19972;DHT22;10147;16.402;102.848;2023-08-24T03:49:11;30.30;99.90
19972;DHT22;10147;16.402;102.848;2023-08-24T03:51:42;30.40;99.90
19972;DHT22;10147;16.402;102.848;2023-08-24T03:54:11;30.40;99.90
19972;DHT22;10147;16.402;102.848;2023-08-24T03:56:41;30.40;99.90
19972;DHT22;10147;16.402;102.848;2023-08-24T03:59:12;30.50;99.90
19972;DHT22;10147;16.402;102.848;2023-08-24T04:01:42;30.50;99.90
19972;DHT22;10147;16.402;102.848;2023-08-24T04:04:12;30.60;99.90
19972;DHT22;10147;16.402;102.848;2023-08-24T04:06:42;30.60;99.90
19972;DHT22;10147;16.402;102.848;2023-08-24T04:09:12;30.60;99.90
19972;DHT22;10147;16.402;102.848;2023-08-24T04:11:43;30.60;99.90
19972;DHT22;10147;16.402;102.848;2023-08-24T04:14:15;30.70;99.90
19972;DHT22;10147;16.402;102.848;2023-08-24T04:16:45;30.70;99.90
19972;DHT22;10147;16.402;102.848;2023-08-24T04:19:14;30.80;99.90
19972;DHT22;10147;16.402;102.848;2023-08-24T04:21:44;30.80;99.90
19972;DHT22;10147;16.402;102.848;2023-08-24T04:24:14;30.80;99.90
19972;DHT22;10147;16.402;102.848;2023-08-24T04:26:44;30.90;99.90
19972;DHT22;10147;16.402;102.848;2023-08-24T04:29:15;30.90;99.90
19972;DHT22;10147;16.402;102.848;2023-08-24T04:31:46;30.90;99.90
19972;DHT22;10147;16.402;102.848;2023-08-24T04:34:16;30.90;99.90
19972;DHT22;10147;16.402;102.848;2023-08-24T04:36:46;30.80;99.90
19972;DHT22;10147;16.402;102.848;2023-08-24T04:39:17;30.80;99.90
19972;DHT22;10147;16.402;102.848;2023-08-24T04:41:51;30.90;99.90
19972;DHT22;10147;16.402;102.848;2023-08-24T04:44:21;31.00;99.90
19972;DHT22;10147;16.402;102.848;2023-08-24T04:46:51;31.00;99.90
19972;DHT22;10147;16.402;102.848;2023-08-24T04:49:21;30.90;99.90
19972;DHT22;10147;16.402;102.848;2023-08-24T04:51:51;31.00;99.90
19972;DHT22;10147;16.402;102.848;2023-08-24T04:54:21;31.00;99.90
19972;DHT22;10147;16.402;102.848;2023-08-24T04:56:51;31.00;99.90
19972;DHT22;10147;16.402;102.848;2023-08-24T04:59:21;30.90;99.90
19972;DHT22;10147;16.402;102.848;2023-08-24T05:01:52;31.10;99.90
19972;DHT22;10147;16.402;102.848;2023-08-24T05:04:22;31.10;99.90
19972;DHT22;10147;16.402;102.848;2023-08-24T05:06:52;31.20;99.90
19972;DHT22;10147;16.402;102.848;2023-08-24T05:09:22;31.20;99.90
19972;DHT22;10147;16.402;102.848;2023-08-24T05:11:52;31.10;99.90
19972;DHT22;10147;16.402;102.848;2023-08-24T05:14:23;31.20;99.90
19972;DHT22;10147;16.402;102.848;2023-08-24T05:16:53;31.20;99.90
19972;DHT22;10147;16.402;102.848;2023-08-24T05:19:23;31.40;99.90
19972;DHT22;10147;16.402;102.848;2023-08-24T05:21:56;31.40;99.90
19972;DHT22;10147;16.402;102.848;2023-08-24T05:24:26;31.40;99.90
19972;DHT22;10147;16.402;102.848;2023-08-24T05:26:56;31.40;99.90
19972;DHT22;10147;16.402;102.848;2023-08-24T05:29:26;31.40;99.90
19972;DHT22;10147;16.402;102.848;2023-08-24T05:31:57;31.50;99.90
19972;DHT22;10147;16.402;102.848;2023-08-24T05:34:26;31.50;99.90
19972;DHT22;10147;16.402;102.848;2023-08-24T05:36:57;31.60;99.90
19972;DHT22;10147;16.402;102.848;2023-08-24T05:39:26;31.60;99.90
19972;DHT22;10147;16.402;102.848;2023-08-24T05:41:57;31.70;99.90
19972;DHT22;10147;16.402;102.848;2023-08-24T05:44:27;31.60;99.90
19972;DHT22;10147;16.402;102.848;2023-08-24T05:46:57;31.70;99.90
19972;DHT22;10147;16.402;102.848;2023-08-24T05:49:27;31.70;99.90
19972;DHT22;10147;16.402;102.848;2023-08-24T05:51:57;31.70;99.90
19972;DHT22;10147;16.402;102.848;2023-08-24T05:54:27;31.90;99.90
19972;DHT22;10147;16.402;102.848;2023-08-24T05:56:57;31.90;99.90
19972;DHT22;10147;16.402;102.848;2023-08-24T05:59:30;31.90;99.90
19972;DHT22;10147;16.402;102.848;2023-08-24T06:02:01;31.90;99.90
19972;DHT22;10147;16.402;102.848;2023-08-24T06:04:31;31.90;99.90
19972;DHT22;10147;16.402;102.848;2023-08-24T06:07:01;32.00;99.90
19972;DHT22;10147;16.402;102.848;2023-08-24T06:09:37;32.10;99.90
19972;DHT22;10147;16.402;102.848;2023-08-24T06:12:07;32.10;99.90
19972;DHT22;10147;16.402;102.848;2023-08-24T06:14:37;32.20;99.90
19972;DHT22;10147;16.402;102.848;2023-08-24T06:17:07;32.20;99.90
19972;DHT22;10147;16.402;102.848;2023-08-24T06:19:37;32.20;99.90
19972;DHT22;10147;16.402;102.848;2023-08-24T06:22:08;32.20;99.90
19972;DHT22;10147;16.402;102.848;2023-08-24T06:24:38;32.10;99.90
19972;DHT22;10147;16.402;102.848;2023-08-24T06:27:08;32.20;99.90
19972;DHT22;10147;16.402;102.848;2023-08-24T06:29:42;32.10;99.90
19972;DHT22;10147;16.402;102.848;2023-08-24T06:32:13;32.10;99.90
19972;DHT22;10147;16.402;102.848;2023-08-24T06:34:43;32.10;99.90
19972;DHT22;10147;16.402;102.848;2023-08-24T06:37:14;32.20;99.90
19972;DHT22;10147;16.402;102.848;2023-08-24T06:39:44;32.10;99.90
19972;DHT22;10147;16.402;102.848;2023-08-24T06:42:15;31.90;99.90
19972;DHT22;10147;16.402;102.848;2023-08-24T06:44:47;32.10;99.90
19972;DHT22;10147;16.402;102.848;2023-08-24T06:47:19;32.20;99.90
19972;DHT22;10147;16.402;102.848;2023-08-24T06:49:50;32.10;99.90
19972;DHT22;10147;16.402;102.848;2023-08-24T06:52:20;32.10;99.90
19972;DHT22;10147;16.402;102.848;2023-08-24T06:54:50;32.10;99.90
19972;DHT22;10147;16.402;102.848;2023-08-24T06:57:23;32.10;99.90
19972;DHT22;10147;16.402;102.848;2023-08-24T06:59:53;32.10;99.90
19972;DHT22;10147;16.402;102.848;2023-08-24T07:02:23;32.10;99.90
19972;DHT22;10147;16.402;102.848;2023-08-24T07:04:53;32.10;99.90
19972;DHT22;10147;16.402;102.848;2023-08-24T07:07:29;32.10;99.90
19972;DHT22;10147;16.402;102.848;2023-08-24T07:10:18;32.10;99.90
19972;DHT22;10147;16.402;102.848;2023-08-24T07:13:14;32.10;99.90
19972;DHT22;10147;16.402;102.848;2023-08-24T07:15:49;32.10;99.90
19972;DHT22;10147;16.402;102.848;2023-08-24T07:18:34;32.00;99.90
19972;DHT22;10147;16.402;102.848;2023-08-24T07:21:12;32.00;99.90
19972;DHT22;10147;16.402;102.848;2023-08-24T07:24:09;31.90;99.90
19972;DHT22;10147;16.402;102.848;2023-08-24T07:26:55;32.00;99.90
19972;DHT22;10147;16.402;102.848;2023-08-24T07:29:36;32.00;99.90
19972;DHT22;10147;16.402;102.848;2023-08-24T07:32:50;31.90;99.90
19972;DHT22;10147;16.402;102.848;2023-08-24T07:35:23;31.90;99.90
19972;DHT22;10147;16.402;102.848;2023-08-24T07:38:47;31.90;99.90
19972;DHT22;10147;16.402;102.848;2023-08-24T07:41:50;31.90;99.90
19972;DHT22;10147;16.402;102.848;2023-08-24T07:50:51;32.00;99.90
19972;DHT22;10147;16.402;102.848;2023-08-24T07:54:16;32.00;99.90
19972;DHT22;10147;16.402;102.848;2023-08-24T07:57:42;31.90;99.90
19972;DHT22;10147;16.402;102.848;2023-08-24T08:00:24;31.90;99.90
19972;DHT22;10147;16.402;102.848;2023-08-24T08:03:02;31.90;99.90
19972;DHT22;10147;16.402;102.848;2023-08-24T08:09:23;31.80;99.90
19972;DHT22;10147;16.402;102.848;2023-08-24T08:11:53;31.90;99.90
19972;DHT22;10147;16.402;102.848;2023-08-24T08:14:23;31.80;99.90
19972;DHT22;10147;16.402;102.848;2023-08-24T08:16:59;31.90;99.90
19972;DHT22;10147;16.402;102.848;2023-08-24T08:19:29;31.90;99.90
19972;DHT22;10147;16.402;102.848;2023-08-24T08:22:00;31.90;99.90
19972;DHT22;10147;16.402;102.848;2023-08-24T08:24:30;31.80;99.90
19972;DHT22;10147;16.402;102.848;2023-08-24T08:27:00;31.90;99.90
19972;DHT22;10147;16.402;102.848;2023-08-24T08:29:30;31.90;99.90
19972;DHT22;10147;16.402;102.848;2023-08-24T08:32:00;31.90;99.90
19972;DHT22;10147;16.402;102.848;2023-08-24T08:34:31;31.80;99.90
19972;DHT22;10147;16.402;102.848;2023-08-24T08:37:01;31.80;99.90
19972;DHT22;10147;16.402;102.848;2023-08-24T08:39:33;31.90;99.90
19972;DHT22;10147;16.402;102.848;2023-08-24T08:42:03;32.00;99.90
19972;DHT22;10147;16.402;102.848;2023-08-24T08:44:33;31.90;99.90
19972;DHT22;10147;16.402;102.848;2023-08-24T08:47:04;31.90;99.90
19972;DHT22;10147;16.402;102.848;2023-08-24T08:49:43;31.90;99.90
19972;DHT22;10147;16.402;102.848;2023-08-24T08:52:14;32.00;99.90
19972;DHT22;10147;16.402;102.848;2023-08-24T08:54:45;32.00;99.90
19972;DHT22;10147;16.402;102.848;2023-08-24T08:57:16;32.10;99.90
19972;DHT22;10147;16.402;102.848;2023-08-24T08:59:48;32.00;99.90
19972;DHT22;10147;16.402;102.848;2023-08-24T09:02:20;32.10;99.90
19972;DHT22;10147;16.402;102.848;2023-08-24T09:04:52;32.10;99.90
19972;DHT22;10147;16.402;102.848;2023-08-24T09:07:23;32.10;99.90
19972;DHT22;10147;16.402;102.848;2023-08-24T09:09:53;32.00;99.90
19972;DHT22;10147;16.402;102.848;2023-08-24T09:12:23;31.90;99.90
19972;DHT22;10147;16.402;102.848;2023-08-24T09:14:53;31.90;99.90
19972;DHT22;10147;16.402;102.848;2023-08-24T09:17:23;31.90;99.90
19972;DHT22;10147;16.402;102.848;2023-08-24T09:19:58;32.00;99.90
19972;DHT22;10147;16.402;102.848;2023-08-24T09:22:35;32.10;99.90
19972;DHT22;10147;16.402;102.848;2023-08-24T09:25:10;32.10;99.90
19972;DHT22;10147;16.402;102.848;2023-08-24T09:27:40;32.20;99.90
19972;DHT22;10147;16.402;102.848;2023-08-24T09:30:11;32.30;99.90
19972;DHT22;10147;16.402;102.848;2023-08-24T09:32:42;32.20;99.90
19972;DHT22;10147;16.402;102.848;2023-08-24T09:35:14;32.00;99.90
19972;DHT22;10147;16.402;102.848;2023-08-24T09:37:50;32.00;99.90
19972;DHT22;10147;16.402;102.848;2023-08-24T09:40:24;32.00;99.90
19972;DHT22;10147;16.402;102.848;2023-08-24T09:42:56;32.00;99.90
19972;DHT22;10147;16.402;102.848;2023-08-24T09:45:26;31.90;99.90
19972;DHT22;10147;16.402;102.848;2023-08-24T09:47:58;31.90;99.90
19972;DHT22;10147;16.402;102.848;2023-08-24T09:50:30;31.80;99.90
19972;DHT22;10147;16.402;102.848;2023-08-24T09:53:01;31.70;99.90
19972;DHT22;10147;16.402;102.848;2023-08-24T09:55:35;31.70;99.90
19972;DHT22;10147;16.402;102.848;2023-08-24T09:58:09;31.70;99.90
19972;DHT22;10147;16.402;102.848;2023-08-24T10:00:40;31.80;99.90
19972;DHT22;10147;16.402;102.848;2023-08-24T10:03:12;31.00;99.90
19972;DHT22;10147;16.402;102.848;2023-08-24T10:05:47;30.50;99.90
19972;DHT22;10147;16.402;102.848;2023-08-24T10:08:32;30.70;99.90
19972;DHT22;10147;16.402;102.848;2023-08-24T10:11:04;30.40;99.90
19972;DHT22;10147;16.402;102.848;2023-08-24T10:16:47;30.00;99.90
19972;DHT22;10147;16.402;102.848;2023-08-24T10:19:19;30.10;99.90
19972;DHT22;10147;16.402;102.848;2023-08-24T10:21:53;29.90;99.90
19972;DHT22;10147;16.402;102.848;2023-08-24T10:24:27;29.90;99.90
19972;DHT22;10147;16.402;102.848;2023-08-24T10:26:58;30.00;99.90
19972;DHT22;10147;16.402;102.848;2023-08-24T10:29:30;30.20;99.90
19972;DHT22;10147;16.402;102.848;2023-08-24T10:32:01;30.30;99.90
19972;DHT22;10147;16.402;102.848;2023-08-24T10:34:33;30.10;99.90
19972;DHT22;10147;16.402;102.848;2023-08-24T10:37:10;30.00;99.90
19972;DHT22;10147;16.402;102.848;2023-08-24T10:39:45;30.00;99.90
19972;DHT22;10147;16.402;102.848;2023-08-24T10:42:15;30.10;99.90
19972;DHT22;10147;16.402;102.848;2023-08-24T10:44:46;30.10;99.90
19972;DHT22;10147;16.402;102.848;2023-08-24T10:47:23;30.10;99.90
19972;DHT22;10147;16.402;102.848;2023-08-24T10:50:00;30.00;99.90
19972;DHT22;10147;16.402;102.848;2023-08-24T10:52:36;30.00;99.90
19972;DHT22;10147;16.402;102.848;2023-08-24T10:55:28;30.00;99.90
19972;DHT22;10147;16.402;102.848;2023-08-24T10:58:00;29.80;99.90
19972;DHT22;10147;16.402;102.848;2023-08-24T11:00:31;29.90;99.90
19972;DHT22;10147;16.402;102.848;2023-08-24T11:03:00;29.90;99.90
19972;DHT22;10147;16.402;102.848;2023-08-24T11:05:32;30.00;99.90
19972;DHT22;10147;16.402;102.848;2023-08-24T11:08:04;30.00;99.90
19972;DHT22;10147;16.402;102.848;2023-08-24T11:10:47;30.00;99.90
19972;DHT22;10147;16.402;102.848;2023-08-24T11:13:19;30.00;99.90
19972;DHT22;10147;16.402;102.848;2023-08-24T11:15:52;30.00;99.90
19972;DHT22;10147;16.402;102.848;2023-08-24T11:18:28;30.00;99.90
19972;DHT22;10147;16.402;102.848;2023-08-24T11:21:06;30.10;99.90
19972;DHT22;10147;16.402;102.848;2023-08-24T11:23:39;30.10;99.90
19972;DHT22;10147;16.402;102.848;2023-08-24T11:26:10;30.00;99.90
19972;DHT22;10147;16.402;102.848;2023-08-24T11:28:40;30.10;99.90
19972;DHT22;10147;16.402;102.848;2023-08-24T11:31:10;30.10;99.90
19972;DHT22;10147;16.402;102.848;2023-08-24T11:33:41;30.00;99.90
19972;DHT22;10147;16.402;102.848;2023-08-24T11:36:12;30.10;99.90
19972;DHT22;10147;16.402;102.848;2023-08-24T11:38:43;30.10;99.90
19972;DHT22;10147;16.402;102.848;2023-08-24T11:41:15;30.10;99.90
19972;DHT22;10147;16.402;102.848;2023-08-24T11:43:47;30.00;99.90
19972;DHT22;10147;16.402;102.848;2023-08-24T11:46:18;29.80;99.90
19972;DHT22;10147;16.402;102.848;2023-08-24T11:48:48;29.80;99.90
19972;DHT22;10147;16.402;102.848;2023-08-24T11:51:19;29.90;99.90
19972;DHT22;10147;16.402;102.848;2023-08-24T11:54:09;30.00;99.90
19972;DHT22;10147;16.402;102.848;2023-08-24T11:56:45;30.00;99.90
19972;DHT22;10147;16.402;102.848;2023-08-24T11:59:17;30.00;99.90
19972;DHT22;10147;16.402;102.848;2023-08-24T12:01:47;29.90;99.90
19972;DHT22;10147;16.402;102.848;2023-08-24T12:04:20;29.90;99.90
19972;DHT22;10147;16.402;102.848;2023-08-24T12:06:50;30.00;99.90
19972;DHT22;10147;16.402;102.848;2023-08-24T12:09:21;30.00;99.90
19972;DHT22;10147;16.402;102.848;2023-08-24T12:11:55;30.00;99.90
19972;DHT22;10147;16.402;102.848;2023-08-24T12:14:27;29.90;99.90
19972;DHT22;10147;16.402;102.848;2023-08-24T12:16:57;29.70;99.90
19972;DHT22;10147;16.402;102.848;2023-08-24T12:19:27;29.80;99.90
19972;DHT22;10147;16.402;102.848;2023-08-24T12:21:57;29.80;99.90
19972;DHT22;10147;16.402;102.848;2023-08-24T12:24:28;29.70;99.90
19972;DHT22;10147;16.402;102.848;2023-08-24T12:26:58;29.70;99.90
19972;DHT22;10147;16.402;102.848;2023-08-24T12:29:32;29.70;99.90
19972;DHT22;10147;16.402;102.848;2023-08-24T12:32:02;29.60;99.90
19972;DHT22;10147;16.402;102.848;2023-08-24T12:34:32;29.70;99.90
19972;DHT22;10147;16.402;102.848;2023-08-24T12:37:02;29.70;99.90
19972;DHT22;10147;16.402;102.848;2023-08-24T12:39:37;29.80;99.90
19972;DHT22;10147;16.402;102.848;2023-08-24T12:42:08;29.70;99.90
19972;DHT22;10147;16.402;102.848;2023-08-24T12:44:38;29.70;99.90
19972;DHT22;10147;16.402;102.848;2023-08-24T12:47:08;29.70;99.90
19972;DHT22;10147;16.402;102.848;2023-08-24T12:49:38;29.60;99.90
19972;DHT22;10147;16.402;102.848;2023-08-24T12:52:08;29.60;99.90
19972;DHT22;10147;16.402;102.848;2023-08-24T12:54:38;29.60;99.90
19972;DHT22;10147;16.402;102.848;2023-08-24T12:57:08;29.50;99.90
19972;DHT22;10147;16.402;102.848;2023-08-24T12:59:39;29.40;99.90
19972;DHT22;10147;16.402;102.848;2023-08-24T13:02:09;29.40;99.90
19972;DHT22;10147;16.402;102.848;2023-08-24T13:04:52;29.40;99.90
19972;DHT22;10147;16.402;102.848;2023-08-24T13:07:23;29.40;99.90
19972;DHT22;10147;16.402;102.848;2023-08-24T13:09:53;29.40;99.90
19972;DHT22;10147;16.402;102.848;2023-08-24T13:12:23;29.30;99.90
19972;DHT22;10147;16.402;102.848;2023-08-24T13:14:56;29.30;99.90
19972;DHT22;10147;16.402;102.848;2023-08-24T13:17:27;29.30;99.90
19972;DHT22;10147;16.402;102.848;2023-08-24T13:19:57;29.20;99.90
19972;DHT22;10147;16.402;102.848;2023-08-24T13:22:27;29.30;99.90
19972;DHT22;10147;16.402;102.848;2023-08-24T13:24:58;29.30;99.90
19972;DHT22;10147;16.402;102.848;2023-08-24T13:27:33;29.30;99.90
19972;DHT22;10147;16.402;102.848;2023-08-24T13:30:03;29.30;99.90
19972;DHT22;10147;16.402;102.848;2023-08-24T13:32:38;29.30;99.90
19972;DHT22;10147;16.402;102.848;2023-08-24T13:35:09;29.20;99.90
19972;DHT22;10147;16.402;102.848;2023-08-24T13:37:39;29.20;99.90
19972;DHT22;10147;16.402;102.848;2023-08-24T13:40:10;29.20;99.90
19972;DHT22;10147;16.402;102.848;2023-08-24T13:42:42;29.20;99.90
19972;DHT22;10147;16.402;102.848;2023-08-24T13:45:13;29.20;99.90
19972;DHT22;10147;16.402;102.848;2023-08-24T13:47:44;29.10;99.90
19972;DHT22;10147;16.402;102.848;2023-08-24T13:50:18;29.00;99.90
19972;DHT22;10147;16.402;102.848;2023-08-24T13:52:49;29.00;99.90
19972;DHT22;10147;16.402;102.848;2023-08-24T13:55:20;29.10;99.90
19972;DHT22;10147;16.402;102.848;2023-08-24T13:57:53;29.00;99.90
19972;DHT22;10147;16.402;102.848;2023-08-24T14:00:25;29.00;99.90
19972;DHT22;10147;16.402;102.848;2023-08-24T14:02:55;29.00;99.90
19972;DHT22;10147;16.402;102.848;2023-08-24T14:05:26;29.00;99.90
19972;DHT22;10147;16.402;102.848;2023-08-24T14:07:56;29.00;99.90
19972;DHT22;10147;16.402;102.848;2023-08-24T14:10:26;29.10;99.90
19972;DHT22;10147;16.402;102.848;2023-08-24T14:12:56;29.10;99.90
19972;DHT22;10147;16.402;102.848;2023-08-24T14:15:26;29.10;99.90
19972;DHT22;10147;16.402;102.848;2023-08-24T14:17:56;29.10;99.90
19972;DHT22;10147;16.402;102.848;2023-08-24T14:20:31;29.10;99.90
19972;DHT22;10147;16.402;102.848;2023-08-24T14:23:01;29.10;99.90
19972;DHT22;10147;16.402;102.848;2023-08-24T14:25:33;29.00;99.90
19972;DHT22;10147;16.402;102.848;2023-08-24T14:28:03;29.00;99.90
19972;DHT22;10147;16.402;102.848;2023-08-24T14:30:38;29.00;99.90
19972;DHT22;10147;16.402;102.848;2023-08-24T14:33:09;28.90;99.90
19972;DHT22;10147;16.402;102.848;2023-08-24T14:35:39;28.90;99.90
19972;DHT22;10147;16.402;102.848;2023-08-24T14:38:09;28.80;99.90
19972;DHT22;10147;16.402;102.848;2023-08-24T14:40:39;28.80;99.90
19972;DHT22;10147;16.402;102.848;2023-08-24T14:43:09;28.80;99.90
19972;DHT22;10147;16.402;102.848;2023-08-24T14:45:39;28.90;99.90
19972;DHT22;10147;16.402;102.848;2023-08-24T14:48:09;28.80;99.90
19972;DHT22;10147;16.402;102.848;2023-08-24T14:50:40;28.70;99.90
19972;DHT22;10147;16.402;102.848;2023-08-24T14:53:10;28.70;99.90
19972;DHT22;10147;16.402;102.848;2023-08-24T14:55:41;28.70;99.90
19972;DHT22;10147;16.402;102.848;2023-08-24T14:58:11;28.70;99.90
19972;DHT22;10147;16.402;102.848;2023-08-24T15:00:41;28.70;99.90
19972;DHT22;10147;16.402;102.848;2023-08-24T15:03:14;28.70;99.90
19972;DHT22;10147;16.402;102.848;2023-08-24T15:05:55;28.60;99.90
19972;DHT22;10147;16.402;102.848;2023-08-24T15:08:26;28.60;99.90
19972;DHT22;10147;16.402;102.848;2023-08-24T15:10:56;28.60;99.90
19972;DHT22;10147;16.402;102.848;2023-08-24T15:13:28;28.60;99.90
19972;DHT22;10147;16.402;102.848;2023-08-24T15:15:58;28.70;99.90
19972;DHT22;10147;16.402;102.848;2023-08-24T15:18:29;28.70;99.90
19972;DHT22;10147;16.402;102.848;2023-08-24T15:20:59;28.80;99.90
19972;DHT22;10147;16.402;102.848;2023-08-24T15:23:31;28.70;99.90
19972;DHT22;10147;16.402;102.848;2023-08-24T15:26:01;28.60;99.90
19972;DHT22;10147;16.402;102.848;2023-08-24T15:31:47;28.70;99.90
19972;DHT22;10147;16.402;102.848;2023-08-24T15:34:17;28.70;99.90
19972;DHT22;10147;16.402;102.848;2023-08-24T15:36:47;28.50;99.90
19972;DHT22;10147;16.402;102.848;2023-08-24T15:39:17;28.50;99.90
19972;DHT22;10147;16.402;102.848;2023-08-24T15:41:47;28.50;99.90
19972;DHT22;10147;16.402;102.848;2023-08-24T15:44:19;28.40;99.90
19972;DHT22;10147;16.402;102.848;2023-08-24T15:46:49;28.30;99.90
19972;DHT22;10147;16.402;102.848;2023-08-24T15:49:21;28.50;99.90
19972;DHT22;10147;16.402;102.848;2023-08-24T15:51:53;28.60;99.90
19972;DHT22;10147;16.402;102.848;2023-08-24T15:54:23;28.60;99.90